Time;durP1;ratioP1;P1;durP2;ratioP2;P2;SDS_P1;SDS_P2;PMS_P1;PMS_P2;Temp;Humidity;BMP_temperature;BMP_pressure;BME280_temperature;BME280_humidity;BME280_pressure;Samples;Min_cycle;Max_cycle;Signal;HPM_P1;HPM_P2
2021/04/19 00:01:17;;;;;;;34.17;19.57;;;;;;;4.51;100.00;95589.34;5110780;28;20282;-64
2021/04/19 00:03:44;;;;;;;35.00;20.93;;;;;;;4.39;100.00;95596.47;5110983;28;20195;-64
2021/04/19 00:06:11;;;;;;;34.70;20.40;;;;;;;4.41;100.00;95600.38;5111053;28;20283;-64
2021/04/19 00:08:39;;;;;;;32.07;19.10;;;;;;;4.48;100.00;95588.06;5110820;28;20226;-64
2021/04/19 00:11:06;;;;;;;30.20;18.60;;;;;;;4.58;100.00;95595.03;5110424;28;20231;-64
2021/04/19 00:13:32;;;;;;;33.63;20.53;;;;;;;4.60;100.00;95598.09;5111186;28;20187;-63
2021/04/19 00:15:59;;;;;;;35.27;20.03;;;;;;;4.71;100.00;95589.41;5110523;28;20255;-64
2021/04/19 00:18:27;;;;;;;41.23;22.17;;;;;;;4.89;100.00;95588.91;5110747;28;20234;-64
2021/04/19 00:20:54;;;;;;;33.57;20.07;;;;;;;4.89;100.00;95581.19;5110542;28;20191;-64
2021/04/19 00:23:21;;;;;;;32.13;19.57;;;;;;;4.78;100.00;95573.72;5110580;28;20626;-64
2021/04/19 00:25:48;;;;;;;31.00;20.07;;;;;;;4.89;100.00;95575.28;5110334;28;20245;-64
2021/04/19 00:28:15;;;;;;;29.97;18.77;;;;;;;4.97;100.00;95577.38;5111014;28;20235;-63
2021/04/19 00:30:42;;;;;;;27.43;17.83;;;;;;;4.95;100.00;95564.75;5110388;28;20288;-62
2021/04/19 00:33:09;;;;;;;28.33;17.90;;;;;;;4.99;100.00;95562.41;5110648;28;20199;-64
2021/04/19 00:35:36;;;;;;;24.67;17.27;;;;;;;5.07;100.00;95554.19;5110320;28;20620;-64
2021/04/19 00:38:04;;;;;;;28.47;18.13;;;;;;;5.03;100.00;95556.50;5110552;28;20191;-64
2021/04/19 00:40:32;;;;;;;28.33;17.90;;;;;;;5.04;100.00;95552.91;5110293;28;20195;-64
2021/04/19 00:42:59;;;;;;;29.27;17.30;;;;;;;5.12;100.00;95554.22;5110293;28;20187;-64
2021/04/19 00:45:26;;;;;;;33.70;18.93;;;;;;;4.94;100.00;95562.41;5110189;28;20191;-63
2021/04/19 00:47:53;;;;;;;33.60;18.83;;;;;;;4.72;100.00;95565.22;5110471;28;20791;-64
2021/04/19 00:50:25;;;;;;;31.90;18.47;;;;;;;4.86;100.00;95555.97;5110315;28;20300;-64
2021/04/19 00:52:53;;;;;;;33.50;19.07;;;;;;;4.94;100.00;95555.47;5110315;28;20201;-64
2021/04/19 00:55:21;;;;;;;31.33;18.00;;;;;;;5.07;100.00;95557.56;5110318;28;20199;-63
2021/04/19 00:57:48;;;;;;;25.73;16.80;;;;;;;5.08;100.00;95546.19;5110449;28;20252;-64
2021/04/19 01:00:22;;;;;;;29.30;16.93;;;;;;;4.88;100.00;95546.19;5114155;28;20204;-64
2021/04/19 01:02:49;;;;;;;24.77;16.27;;;;;;;4.95;100.00;95539.00;5114597;28;20195;-64
2021/04/19 01:05:21;;;;;;;30.27;17.37;;;;;;;4.87;100.00;95534.34;5114135;28;20233;-63
2021/04/19 01:07:48;;;;;;;27.33;16.23;;;;;;;4.99;100.00;95539.25;5114505;28;20198;-64
2021/04/19 01:10:16;;;;;;;29.23;16.53;;;;;;;5.02;100.00;95534.38;5114027;28;20314;-63
2021/04/19 01:12:42;;;;;;;28.70;16.70;;;;;;;5.06;100.00;95525.09;5114134;28;20195;-64
2021/04/19 01:15:13;;;;;;;21.37;13.67;;;;;;;5.18;100.00;95523.03;5114167;28;20205;-64
2021/04/19 01:17:41;;;;;;;23.57;15.07;;;;;;;5.24;100.00;95525.59;5114054;28;20283;-64
2021/04/19 01:20:10;;;;;;;24.47;13.17;;;;;;;5.31;100.00;95533.84;5114301;28;20196;-64
2021/04/19 01:22:39;;;;;;;18.83;13.13;;;;;;;5.36;100.00;95544.16;5113757;28;20195;-65
2021/04/19 01:25:08;;;;;;;20.67;12.37;;;;;;;5.40;100.00;95534.88;5114321;28;20230;-64
2021/04/19 01:27:35;;;;;;;17.37;12.53;;;;;;;5.45;100.00;95535.63;5114250;28;20282;-64
2021/04/19 01:30:03;;;;;;;14.63;10.27;;;;;;;5.59;100.00;95530.72;5113732;28;20199;-64
2021/04/19 01:32:29;;;;;;;13.87;9.63;;;;;;;5.50;100.00;95524.56;5113628;28;20661;-64
2021/04/19 01:34:56;;;;;;;16.27;10.53;;;;;;;5.52;100.00;95528.44;5113534;28;20226;-64
2021/04/19 01:37:23;;;;;;;16.50;10.57;;;;;;;5.43;100.00;95531.78;5113606;28;20230;-65
2021/04/19 01:39:51;;;;;;;14.73;10.70;;;;;;;5.55;100.00;95534.84;5113547;28;20261;-63
2021/04/19 01:42:18;;;;;;;12.80;9.70;;;;;;;5.48;100.00;95531.78;5113376;28;20683;-63
2021/04/19 01:44:45;;;;;;;16.67;11.60;;;;;;;5.49;100.00;95538.47;5113355;28;20194;-64
2021/04/19 01:47:13;;;;;;;16.60;11.73;;;;;;;5.55;100.00;95527.91;5113477;28;20681;-62
2021/04/19 01:49:40;;;;;;;15.67;11.17;;;;;;;5.69;100.00;95530.69;5113279;28;20682;-64
2021/04/19 01:52:07;;;;;;;13.90;10.10;;;;;;;5.73;100.00;95528.41;5113443;28;20233;-64
2021/04/19 01:54:34;;;;;;;13.30;10.33;;;;;;;5.70;100.00;95528.91;5113448;28;20619;-64
2021/04/19 01:57:02;;;;;;;14.27;10.30;;;;;;;5.71;100.00;95533.03;5113076;28;20223;-64
2021/04/19 01:59:30;;;;;;;14.30;10.63;;;;;;;5.68;100.00;95526.56;5113240;28;20271;-64
2021/04/19 02:02:03;;;;;;;13.73;9.83;;;;;;;5.76;100.00;95520.91;5113201;28;20231;-64
2021/04/19 02:04:40;;;;;;;12.20;9.00;;;;;;;5.76;100.00;95522.72;5112759;28;20636;-64
2021/04/19 02:07:20;;;;;;;12.43;9.27;;;;;;;5.80;100.00;95521.91;5113280;28;20198;-63
2021/04/19 02:09:58;;;;;;;13.67;9.17;;;;;;;5.75;100.00;95526.31;5112393;28;20195;-64
2021/04/19 02:12:40;;;;;;;13.87;10.17;;;;;;;5.75;100.00;95527.09;5113255;28;20645;-64
2021/04/19 02:15:14;;;;;;;10.83;8.43;;;;;;;5.68;100.00;95521.41;5112908;28;20196;-64
2021/04/19 02:17:46;;;;;;;11.10;8.73;;;;;;;5.68;100.00;95516.25;5112571;28;20640;-64
2021/04/19 02:20:19;;;;;;;10.80;8.23;;;;;;;5.75;100.00;95523.72;5112804;28;20195;-64
2021/04/19 02:22:52;;;;;;;11.13;8.87;;;;;;;5.75;100.00;95519.34;5113154;28;20286;-64
2021/04/19 02:25:24;;;;;;;11.47;8.77;;;;;;;5.63;100.00;95524.00;5112903;28;20191;-65
2021/04/19 02:27:57;;;;;;;10.63;8.20;;;;;;;5.64;100.00;95510.09;5113076;28;20638;-64
2021/04/19 02:30:31;;;;;;;12.63;9.43;;;;;;;5.61;100.00;95519.13;5112536;28;20227;-63
2021/04/19 02:32:59;;;;;;;13.93;8.93;;;;;;;5.61;100.00;95515.78;5112530;28;20682;-64
2021/04/19 02:35:27;;;;;;;14.40;8.97;;;;;;;5.56;100.00;95515.78;5112420;28;20274;-64
2021/04/19 02:37:57;;;;;;;13.97;9.00;;;;;;;5.57;100.00;95512.19;5112691;28;20201;-64
2021/04/19 02:40:25;;;;;;;13.87;9.33;;;;;;;5.45;100.00;95498.78;5112535;28;20206;-64
2021/04/19 02:42:56;;;;;;;16.07;10.00;;;;;;;5.50;100.00;95484.09;5112333;28;20195;-64
2021/04/19 02:45:24;;;;;;;12.80;8.87;;;;;;;5.54;100.00;95485.13;5112257;28;20701;-63
2021/04/19 02:47:52;;;;;;;11.23;8.03;;;;;;;5.52;100.00;95476.09;5112552;28;20635;-64
2021/04/19 02:50:21;;;;;;;10.63;8.17;;;;;;;5.40;100.00;95471.22;5112062;28;20274;-64
2021/04/19 02:52:49;;;;;;;12.57;8.50;;;;;;;5.48;100.00;95470.69;5112234;28;20192;-64
2021/04/19 02:55:19;;;;;;;14.37;8.13;;;;;;;5.47;100.00;95469.16;5111846;27;20704;-64
2021/04/19 02:57:51;;;;;;;13.23;8.80;;;;;;;5.46;100.00;95470.19;5111960;28;20545;-63
2021/04/19 03:00:22;;;;;;;13.60;8.07;;;;;;;5.47;100.00;95474.31;5112328;28;20616;-64
2021/04/19 03:02:50;;;;;;;12.73;7.97;;;;;;;5.43;100.00;95473.28;5112233;27;20194;-64
2021/04/19 03:05:19;;;;;;;11.20;7.50;;;;;;;5.60;100.00;95470.41;5111805;27;20571;-64
2021/04/19 03:07:54;;;;;;;9.97;7.93;;;;;;;5.53;100.00;95477.63;5111886;27;20748;-64
2021/04/19 03:10:21;;;;;;;9.60;7.00;;;;;;;5.55;100.00;95470.41;5112050;28;20599;-63
2021/04/19 03:12:51;;;;;;;8.30;6.83;;;;;;;5.49;100.00;95471.47;5111768;28;20231;-64
2021/04/19 03:15:22;;;;;;;8.20;6.80;;;;;;;5.56;100.00;95477.13;5111928;28;20191;-64
2021/04/19 03:17:51;;;;;;;10.83;7.00;;;;;;;5.52;100.00;95470.97;5111353;28;20246;-64
2021/04/19 03:20:21;;;;;;;13.60;9.00;;;;;;;5.54;100.00;95466.28;5111806;28;20227;-64
2021/04/19 03:22:54;;;;;;;11.67;8.40;;;;;;;5.49;100.00;95458.56;5110622;28;20192;-64
2021/04/19 03:25:24;;;;;;;9.30;7.53;;;;;;;5.46;100.00;95472.00;5111416;27;20635;-64
2021/04/19 03:27:53;;;;;;;8.20;6.90;;;;;;;5.47;100.00;95481.28;5111406;28;20202;-63
2021/04/19 03:30:22;;;;;;;9.03;6.93;;;;;;;5.38;100.00;95475.13;5111371;28;20309;-64
2021/04/19 03:32:52;;;;;;;8.80;5.93;;;;;;;5.34;100.00;95476.63;5111448;28;20278;-61
2021/04/19 03:35:23;;;;;;;6.50;5.80;;;;;;;5.25;100.00;95462.75;5111347;28;20195;-64
2021/04/19 03:37:51;;;;;;;8.00;6.73;;;;;;;5.19;100.00;95462.75;5111703;28;20291;-64
2021/04/19 03:40:23;;;;;;;8.60;6.57;;;;;;;5.15;100.00;95460.97;5111576;28;20297;-64
2021/04/19 03:42:54;;;;;;;8.73;6.70;;;;;;;5.22;100.00;95455.53;5111107;28;20281;-64
2021/04/19 03:45:24;;;;;;;9.97;7.13;;;;;;;5.27;100.00;95452.97;5111202;28;20578;-64
2021/04/19 03:47:55;;;;;;;7.57;6.13;;;;;;;5.29;100.00;95446.50;5111040;28;20810;-64
2021/04/19 03:50:24;;;;;;;7.77;5.80;;;;;;;5.25;100.00;95445.50;5110850;28;20232;-63
2021/04/19 03:52:54;;;;;;;7.97;6.03;;;;;;;5.20;100.00;95445.50;5110562;28;20697;-64
2021/04/19 03:55:21;;;;;;;7.23;5.83;;;;;;;5.19;100.00;95447.31;5110945;28;20742;-65
2021/04/19 03:57:49;;;;;;;11.93;7.80;;;;;;;5.23;100.00;95449.38;5110538;28;20689;-64
2021/04/19 04:00:19;;;;;;;10.70;7.67;;;;;;;5.14;100.00;95438.81;5110505;28;20198;-64
2021/04/19 04:02:53;;;;;;;12.13;9.70;;;;;;;5.27;100.00;95440.09;5111024;28;20266;-62
2021/04/19 04:05:21;;;;;;;10.20;7.40;;;;;;;5.18;100.00;95438.03;5110528;28;20226;-64
2021/04/19 04:07:50;;;;;;;18.57;12.23;;;;;;;5.29;100.00;95441.34;5110253;28;20217;-63
2021/04/19 04:10:19;;;;;;;18.90;11.57;;;;;;;5.30;100.00;95447.28;5110214;28;20236;-64
2021/04/19 04:12:47;;;;;;;23.40;13.17;;;;;;;5.32;100.00;95447.81;5110190;28;20654;-64
2021/04/19 04:15:16;;;;;;;19.60;12.77;;;;;;;5.29;100.00;95456.81;5110146;28;20199;-65
2021/04/19 04:17:43;;;;;;;15.10;9.97;;;;;;;5.44;100.00;95450.84;5108913;28;20226;-65
2021/04/19 04:20:12;;;;;;;16.50;9.80;;;;;;;5.43;100.00;95447.50;5110359;28;20270;-64
2021/04/19 04:22:40;;;;;;;16.53;10.10;;;;;;;5.46;100.00;95456.53;5110244;28;20255;-64
2021/04/19 04:25:09;;;;;;;15.73;10.27;;;;;;;5.39;100.00;95445.72;5110185;28;20207;-66
2021/04/19 04:27:36;;;;;;;19.70;11.60;;;;;;;5.51;100.00;95448.78;5110107;28;20267;-63
2021/04/19 04:30:04;;;;;;;16.17;9.63;;;;;;;5.40;100.00;95437.72;5109870;28;20196;-64
2021/04/19 04:32:31;;;;;;;16.90;10.80;;;;;;;5.49;100.00;95440.53;5110174;28;20206;-63
2021/04/19 04:35:01;;;;;;;16.33;9.67;;;;;;;5.51;100.00;95446.22;5109623;28;20187;-64
2021/04/19 04:37:29;;;;;;;15.37;9.47;;;;;;;5.49;100.00;95445.69;5110024;28;20598;-64
2021/04/19 04:39:57;;;;;;;13.00;8.67;;;;;;;5.49;100.00;95443.88;5110082;28;20217;-63
2021/04/19 04:42:27;;;;;;;13.83;9.37;;;;;;;5.67;100.00;95446.94;5109926;28;20580;-64
2021/04/19 04:44:54;;;;;;;15.33;9.57;;;;;;;5.57;100.00;95445.16;5110498;28;20228;-64
2021/04/19 04:47:29;;;;;;;17.00;10.67;;;;;;;5.58;100.00;95438.97;5110210;28;20202;-64
2021/04/19 04:50:07;;;;;;;22.97;12.17;;;;;;;5.64;100.00;95437.91;5109877;28;20676;-63
2021/04/19 04:52:39;;;;;;;27.57;14.20;;;;;;;5.62;100.00;95440.00;5109946;28;20199;-65
2021/04/19 04:55:09;;;;;;;20.37;11.40;;;;;;;5.77;100.00;95437.38;5110068;28;20194;-65
2021/04/19 04:57:38;;;;;;;20.73;11.73;;;;;;;5.76;100.00;95440.97;5110195;28;20302;-64
2021/04/19 05:00:07;;;;;;;17.70;11.30;;;;;;;5.84;100.00;95442.22;5109903;28;20191;-63
2021/04/19 05:02:34;;;;;;;21.03;11.47;;;;;;;5.82;100.00;95441.72;5109978;28;20212;-63
2021/04/19 05:05:01;;;;;;;14.77;9.33;;;;;;;5.77;100.00;95439.19;5109720;28;20191;-64
2021/04/19 05:07:29;;;;;;;15.67;10.00;;;;;;;5.74;100.00;95444.84;5109780;28;20282;-64
2021/04/19 05:09:58;;;;;;;15.23;9.73;;;;;;;5.80;100.00;95446.38;5109775;28;20215;-63
2021/04/19 05:12:24;;;;;;;15.50;10.53;;;;;;;5.81;100.00;95448.69;5109600;28;20743;-64
2021/04/19 05:14:58;;;;;;;19.07;11.37;;;;;;;5.82;100.00;95447.66;5109917;28;20205;-64
2021/04/19 05:17:24;;;;;;;16.60;10.53;;;;;;;5.85;100.00;95441.97;5110055;28;20362;-64
2021/04/19 05:19:52;;;;;;;14.50;9.37;;;;;;;5.97;100.00;95442.47;5109901;28;20191;-64
2021/04/19 05:22:19;;;;;;;14.63;9.60;;;;;;;5.99;100.00;95444.78;5109818;28;20204;-63
2021/04/19 05:24:46;;;;;;;13.93;9.03;;;;;;;5.92;100.00;95437.34;5109566;28;20195;-63
2021/04/19 05:27:15;;;;;;;14.07;9.13;;;;;;;5.92;100.00;95445.06;5109934;28;20191;-63
2021/04/19 05:29:42;;;;;;;13.93;9.57;;;;;;;5.97;100.00;95447.63;5109722;28;20680;-64
2021/04/19 05:32:09;;;;;;;17.60;10.13;;;;;;;5.97;100.00;95452.78;5109434;28;20314;-63
2021/04/19 05:34:37;;;;;;;16.33;10.77;;;;;;;6.01;100.00;95451.22;5109792;28;20198;-63
2021/04/19 05:37:05;;;;;;;17.27;9.73;;;;;;;6.07;100.00;95451.97;5109618;28;20641;-63
2021/04/19 05:39:34;;;;;;;19.77;11.87;;;;;;;6.07;100.00;95451.19;5109564;28;20201;-63
2021/04/19 05:42:01;;;;;;;17.60;11.10;;;;;;;6.17;100.00;95444.19;5109768;28;20260;-64
2021/04/19 05:44:30;;;;;;;18.90;11.60;;;;;;;6.21;100.00;95441.84;5109463;28;20697;-63
2021/04/19 05:46:58;;;;;;;16.67;11.37;;;;;;;6.14;100.00;95439.53;5112450;28;20274;-62
2021/04/19 05:49:25;;;;;;;21.90;12.17;;;;;;;6.18;100.00;95439.78;5113167;27;20704;-64
2021/04/19 05:51:56;;;;;;;23.40;16.27;;;;;;;6.18;100.00;95442.34;5113022;28;20226;-64
2021/04/19 05:54:23;;;;;;;26.53;17.93;;;;;;;6.18;100.00;95437.97;5112964;28;20251;-64
2021/04/19 05:57:06;;;;;;;31.10;19.80;;;;;;;6.14;100.00;95436.19;5112825;28;20222;-64
2021/04/19 05:59:43;;;;;;;22.50;15.83;;;;;;;6.20;100.00;95437.72;5112895;28;20594;-63
2021/04/19 06:02:12;;;;;;;25.30;15.67;;;;;;;6.27;100.00;95433.03;5113095;28;20722;-62
2021/04/19 06:04:49;;;;;;;22.87;13.03;;;;;;;6.26;100.00;95424.53;5112719;28;20283;-64
2021/04/19 06:07:20;;;;;;;19.63;11.57;;;;;;;6.20;100.00;95435.13;5112547;28;20565;-64
2021/04/19 06:10:02;;;;;;;17.07;10.97;;;;;;;6.18;100.00;95434.63;5112750;28;20573;-64
2021/04/19 06:12:34;;;;;;;16.93;10.57;;;;;;;6.16;100.00;95428.97;5112590;28;20223;-64
2021/04/19 06:15:08;;;;;;;20.47;12.07;;;;;;;6.19;100.00;95420.69;5112638;28;20314;-63
2021/04/19 06:17:37;;;;;;;23.40;14.07;;;;;;;6.16;100.00;95423.81;5112479;28;20316;-63
2021/04/19 06:20:05;;;;;;;21.67;13.33;;;;;;;6.17;100.00;95415.03;5112606;28;20240;-63
2021/04/19 06:22:32;;;;;;;15.93;11.20;;;;;;;6.09;100.00;95413.78;5112195;28;20253;-63
2021/04/19 06:25:00;;;;;;;13.10;8.90;;;;;;;6.15;100.00;95409.34;5112258;28;20237;-64
2021/04/19 06:27:28;;;;;;;15.30;10.83;;;;;;;6.14;100.00;95411.16;5112632;28;20207;-64
2021/04/19 06:29:55;;;;;;;14.17;9.80;;;;;;;6.08;100.00;95412.22;5112407;28;20289;-64
2021/04/19 06:32:24;;;;;;;18.47;11.83;;;;;;;6.17;100.00;95409.88;5112235;28;20231;-64
2021/04/19 06:34:54;;;;;;;15.43;9.90;;;;;;;6.18;100.00;95416.56;5112223;28;20814;-66
2021/04/19 06:37:21;;;;;;;13.27;9.10;;;;;;;6.14;100.00;95415.56;5112126;28;20198;-65
2021/04/19 06:39:48;;;;;;;16.97;10.53;;;;;;;6.08;100.00;95412.22;5112524;28;20712;-64
2021/04/19 06:42:16;;;;;;;15.77;9.70;;;;;;;6.14;100.00;95410.38;5112634;28;20673;-64
2021/04/19 06:44:43;;;;;;;18.63;9.80;;;;;;;6.09;100.00;95407.84;5112013;28;20304;-62
2021/04/19 06:47:11;;;;;;;19.30;11.20;;;;;;;6.09;100.00;95408.63;5111838;28;20285;-64
2021/04/19 06:49:40;;;;;;;17.07;11.33;;;;;;;6.23;100.00;95409.56;5111641;28;20579;-63
2021/04/19 06:52:07;;;;;;;16.00;10.47;;;;;;;6.33;100.00;95416.47;5111765;28;20336;-63
2021/04/19 06:54:34;;;;;;;15.20;10.23;;;;;;;6.24;100.00;95415.50;5111551;28;20196;-63
2021/04/19 06:57:02;;;;;;;15.67;10.77;;;;;;;6.22;100.00;95413.19;5111263;28;20301;-66
2021/04/19 06:59:30;;;;;;;17.97;11.40;;;;;;;6.24;100.00;95410.34;5111716;28;20199;-64
2021/04/19 07:01:58;;;;;;;14.53;9.80;;;;;;;6.33;100.00;95408.72;5112078;28;20248;-64
2021/04/19 07:04:26;;;;;;;14.33;9.27;;;;;;;6.32;100.00;95412.38;5111564;28;20670;-64
2021/04/19 07:06:55;;;;;;;14.30;9.50;;;;;;;6.34;100.00;95420.59;5111812;28;20190;-64
2021/04/19 07:09:26;;;;;;;21.00;9.27;;;;;;;6.47;100.00;95412.25;5111561;28;20198;-63
2021/04/19 07:11:54;;;;;;;11.60;8.10;;;;;;;6.37;100.00;95409.75;5111627;28;20234;-65
2021/04/19 07:14:23;;;;;;;13.83;8.70;;;;;;;6.45;100.00;95406.59;5111461;28;20282;-64
2021/04/19 07:16:51;;;;;;;13.37;8.90;;;;;;;6.55;100.00;95410.91;5111394;28;20355;-64
2021/04/19 07:19:19;;;;;;;13.67;9.17;;;;;;;6.57;100.00;95414.78;5111601;28;20191;-64
2021/04/19 07:21:46;;;;;;;13.70;9.20;;;;;;;6.55;100.00;95416.06;5111283;28;20198;-65
2021/04/19 07:24:14;;;;;;;14.43;9.27;;;;;;;6.53;100.00;95413.75;5111422;28;20195;-64
2021/04/19 07:26:42;;;;;;;15.77;10.03;;;;;;;6.61;100.00;95415.00;5111152;28;20198;-64
2021/04/19 07:29:09;;;;;;;15.93;9.70;;;;;;;6.56;100.00;95413.22;5111519;28;20251;-64
2021/04/19 07:31:47;;;;;;;12.77;8.00;;;;;;;6.64;100.00;95417.03;5111188;28;20231;-63
2021/04/19 07:34:19;;;;;;;13.90;9.37;;;;;;;6.63;100.00;95413.69;5110941;28;20209;-63
2021/04/19 07:36:50;;;;;;;18.63;10.63;;;;;;;6.38;100.00;95417.22;5111082;28;20231;-64
2021/04/19 07:39:19;;;;;;;17.17;9.20;;;;;;;6.45;100.00;95415.09;5110898;28;20198;-64
2021/04/19 07:41:49;;;;;;;14.13;8.90;;;;;;;6.53;100.00;95418.13;5111065;28;20279;-65
2021/04/19 07:44:36;;;;;;;14.40;7.83;;;;;;;6.54;100.00;95411.94;5110756;28;20282;-64
2021/04/19 07:47:30;;;;;;;15.30;7.93;;;;;;;6.62;100.00;95416.56;5110585;28;20251;-63
2021/04/19 07:49:59;;;;;;;15.93;8.80;;;;;;;6.63;100.00;95418.84;5111033;28;20195;-63
2021/04/19 07:52:26;;;;;;;18.93;9.57;;;;;;;6.71;100.00;95415.69;5110660;28;20789;-64
2021/04/19 07:55:10;;;;;;;21.60;11.27;;;;;;;6.68;100.00;95410.28;5110827;28;20199;-63
2021/04/19 07:57:38;;;;;;;28.37;13.53;;;;;;;6.63;100.00;95408.50;5110486;28;20227;-64
2021/04/19 08:00:07;;;;;;;28.17;13.33;;;;;;;6.64;100.00;95404.91;5110343;28;20301;-64
2021/04/19 08:02:34;;;;;;;31.00;15.27;;;;;;;6.68;100.00;95400.72;5110472;28;20204;-65
2021/04/19 08:05:04;;;;;;;21.53;11.23;;;;;;;6.67;100.00;95393.28;5110255;28;20191;-64
2021/04/19 08:07:33;;;;;;;29.07;15.50;;;;;;;6.77;100.00;95391.38;5110097;28;20197;-64
2021/04/19 08:10:01;;;;;;;25.70;15.10;;;;;;;6.80;100.00;95382.31;5110042;28;20191;-64
2021/04/19 08:12:40;;;;;;;18.80;11.50;;;;;;;6.79;100.00;95380.75;5110271;28;20225;-64
2021/04/19 08:15:10;;;;;;;19.00;10.27;;;;;;;6.70;100.00;95377.22;5110554;28;20343;-65
2021/04/19 08:17:37;;;;;;;19.40;11.43;;;;;;;6.60;100.00;95383.25;5110565;28;20230;-64
2021/04/19 08:20:08;;;;;;;14.73;8.23;;;;;;;6.68;100.00;95374.13;5110312;28;20278;-63
2021/04/19 08:22:37;;;;;;;30.10;14.17;;;;;;;6.61;100.00;95379.63;5110495;28;20209;-62
2021/04/19 08:25:12;;;;;;;44.97;16.40;;;;;;;6.58;100.00;95372.41;5110182;28;20201;-61
2021/04/19 08:27:41;;;;;;;102.57;41.13;;;;;;;6.60;100.00;95372.91;5110560;28;20201;-63
2021/04/19 08:30:10;;;;;;;143.30;67.83;;;;;;;6.65;100.00;95372.09;5110140;28;20221;-62
2021/04/19 08:32:37;;;;;;;199.43;99.33;;;;;;;6.77;100.00;95373.31;5109973;28;20305;-63
2021/04/19 08:35:07;;;;;;;64.47;30.30;;;;;;;6.71;100.00;95382.13;5110357;28;20743;-62
2021/04/19 08:37:35;;;;;;;48.30;16.23;;;;;;;6.75;100.00;95380.53;5110103;28;20216;-64
2021/04/19 08:40:03;;;;;;;18.60;9.27;;;;;;;6.72;100.00;95375.94;5110438;28;20293;-64
2021/04/19 08:42:33;;;;;;;16.03;8.80;;;;;;;6.72;100.00;95368.19;5110127;28;20193;-63
2021/04/19 08:45:02;;;;;;;14.57;8.40;;;;;;;6.72;100.00;95359.66;5110009;28;20204;-62
2021/04/19 08:47:30;;;;;;;16.10;8.93;;;;;;;6.62;100.00;95360.53;5110009;28;20548;-63
2021/04/19 08:49:58;;;;;;;15.20;8.57;;;;;;;6.56;100.00;95359.03;5110082;28;20198;-63
2021/04/19 08:52:25;;;;;;;13.90;7.93;;;;;;;6.68;100.00;95354.25;5109880;28;20234;-63
2021/04/19 08:54:52;;;;;;;15.77;8.63;;;;;;;6.77;100.00;95355.22;5110200;28;20397;-63
2021/04/19 08:57:20;;;;;;;12.20;6.93;;;;;;;6.75;100.00;95343.63;5110043;28;20221;-63
2021/04/19 08:59:48;;;;;;;15.47;8.07;;;;;;;6.79;100.00;95355.72;5109774;28;20195;-64
2021/04/19 09:02:17;;;;;;;11.70;6.57;;;;;;;6.86;100.00;95358.00;5109754;28;20195;-64
2021/04/19 09:05:04;;;;;;;7.23;4.20;;;;;;;6.99;100.00;95349.59;5110050;28;20202;-64
2021/04/19 09:07:33;;;;;;;6.93;3.60;;;;;;;6.99;100.00;95354.75;5109893;28;20203;-62
2021/04/19 09:09:59;;;;;;;11.00;5.20;;;;;;;7.18;100.00;95349.63;5110126;28;20203;-63
2021/04/19 09:12:29;;;;;;;10.17;5.33;;;;;;;7.12;100.00;95353.34;5109846;28;20313;-63
2021/04/19 09:15:12;;;;;;;10.87;5.77;;;;;;;7.26;100.00;95346.47;5110147;28;20219;-63
2021/04/19 09:17:41;;;;;;;15.33;6.27;;;;;;;7.31;100.00;95346.41;5109646;28;20697;-63
2021/04/19 09:20:12;;;;;;;13.60;7.53;;;;;;;7.38;100.00;95346.84;5111803;28;20561;-62
2021/04/19 09:22:40;;;;;;;15.37;8.00;;;;;;;7.49;100.00;95348.25;5113474;28;20203;-63
2021/04/19 09:25:11;;;;;;;35.57;13.50;;;;;;;7.61;99.64;95345.28;5113674;28;20234;-62
2021/04/19 09:27:58;;;;;;;16.40;8.03;;;;;;;7.71;100.00;95356.28;5113607;28;20226;-62
2021/04/19 09:30:35;;;;;;;15.63;6.77;;;;;;;7.66;98.46;95353.75;5110064;27;20644;-64
2021/04/19 09:33:22;;;;;;;10.43;5.10;;;;;;;7.72;98.50;95355.22;5113656;27;20954;-63
2021/04/19 09:35:50;;;;;;;11.07;5.03;;;;;;;7.81;99.59;95344.25;5113310;28;20205;-63
2021/04/19 09:38:33;;;;;;;10.97;4.50;;;;;;;7.84;99.00;95352.22;5113404;28;20356;-62
2021/04/19 09:41:01;;;;;;;11.23;4.90;;;;;;;7.80;97.75;95353.84;5113095;28;20202;-63
2021/04/19 09:43:32;;;;;;;11.70;4.63;;;;;;;7.79;97.98;95352.28;5113387;28;20198;-63
2021/04/19 09:46:00;;;;;;;10.27;5.30;;;;;;;7.73;99.30;95348.22;5113352;28;20195;-63
2021/04/19 09:48:42;;;;;;;8.60;4.53;;;;;;;7.75;99.99;95336.56;5112996;28;20203;-64
2021/04/19 09:51:13;;;;;;;7.20;4.27;;;;;;;7.83;98.48;95342.16;5113515;28;20319;-61
2021/04/19 09:53:44;;;;;;;5.57;3.13;;;;;;;7.92;98.57;95345.69;5112948;28;20662;-64
2021/04/19 09:56:11;;;;;;;4.87;3.17;;;;;;;7.91;98.84;95349.31;5112863;28;20225;-63
2021/04/19 09:58:39;;;;;;;11.57;4.97;;;;;;;7.85;99.92;95329.72;5112874;28;20202;-63
2021/04/19 10:01:06;;;;;;;7.90;4.50;;;;;;;7.65;100.00;95331.53;5112805;28;20198;-62
2021/04/19 10:03:34;;;;;;;9.97;5.80;;;;;;;7.59;100.00;95332.63;5112743;28;20191;-63
2021/04/19 10:06:04;;;;;;;12.77;5.27;;;;;;;7.63;100.00;95333.59;5112924;28;20195;-63
2021/04/19 10:08:33;;;;;;;9.80;5.23;;;;;;;7.66;100.00;95332.28;5112851;27;20199;-64
2021/04/19 10:11:01;;;;;;;15.57;7.00;;;;;;;7.82;100.00;95328.44;5112797;28;20363;-64
2021/04/19 10:13:33;;;;;;;12.27;6.70;;;;;;;7.90;100.00;95327.06;5112622;28;20191;-63
2021/04/19 10:16:08;;;;;;;18.70;8.80;;;;;;;8.10;100.00;95326.78;5112599;28;20278;-64
2021/04/19 10:18:37;;;;;;;11.97;6.53;;;;;;;7.98;99.65;95318.66;5112476;28;20217;-63
2021/04/19 10:21:06;;;;;;;15.57;8.23;;;;;;;8.01;99.64;95315.53;5112878;28;20286;-63
2021/04/19 10:23:35;;;;;;;12.53;6.93;;;;;;;7.88;98.34;95319.56;5112752;28;20223;-65
2021/04/19 10:26:03;;;;;;;8.23;4.00;;;;;;;7.77;98.53;95308.59;5112351;28;20198;-64
2021/04/19 10:28:33;;;;;;;9.33;4.67;;;;;;;7.63;98.75;95310.34;5112622;28;20191;-61
2021/04/19 10:31:10;;;;;;;6.70;4.43;;;;;;;7.47;99.81;95314.16;5111559;28;20205;-64
2021/04/19 10:33:37;;;;;;;6.67;4.20;;;;;;;7.39;100.00;95322.53;5112173;28;20198;-62
2021/04/19 10:36:16;;;;;;;4.38;2.85;;;;;;;7.35;100.00;95316.38;5111972;28;20437;-64
2021/04/19 10:38:44;;;;;;;2.77;2.30;;;;;;;7.31;100.00;95305.06;5112195;28;20277;-64
2021/04/19 10:41:11;;;;;;;4.30;2.73;;;;;;;7.26;100.00;95303.31;5112213;28;20242;-64
2021/04/19 10:43:38;;;;;;;4.30;2.83;;;;;;;7.20;100.00;95308.81;5112055;28;20201;-63
2021/04/19 10:46:25;;;;;;;5.57;3.27;;;;;;;7.28;100.00;95306.38;5111955;28;20195;-63
2021/04/19 10:48:55;;;;;;;8.40;3.67;;;;;;;7.37;100.00;95303.97;5112122;28;20199;-65
2021/04/19 10:51:25;;;;;;;12.33;7.73;;;;;;;7.39;100.00;95304.44;5111991;28;20226;-63
2021/04/19 10:53:53;;;;;;;9.53;6.53;;;;;;;7.48;100.00;95297.59;5112155;28;20214;-63
2021/04/19 10:56:22;;;;;;;9.10;6.40;;;;;;;7.59;100.00;95288.66;5111626;28;20215;-64
2021/04/19 10:58:51;;;;;;;6.73;4.33;;;;;;;7.72;100.00;95290.56;5111925;28;20244;-64
2021/04/19 11:01:25;;;;;;;4.17;3.03;;;;;;;7.78;99.95;95293.84;5111811;28;20210;-63
2021/04/19 11:03:53;;;;;;;13.23;5.97;;;;;;;7.75;99.47;95290.00;5111947;28;20195;-62
2021/04/19 11:06:20;;;;;;;15.93;9.03;;;;;;;7.73;99.72;95286.16;5111597;28;20775;-64
2021/04/19 11:08:53;;;;;;;9.77;5.73;;;;;;;7.63;100.00;95281.88;5112049;28;20201;-63
2021/04/19 11:11:25;;;;;;;17.33;7.63;;;;;;;7.81;99.30;95277.00;5112008;28;20227;-64
2021/04/19 11:13:53;;;;;;;9.50;5.73;;;;;;;7.66;99.10;95285.75;5111652;28;20202;-62
2021/04/19 11:16:22;;;;;;;9.40;5.70;;;;;;;7.68;98.71;95278.47;5111439;27;20191;-63
2021/04/19 11:18:50;;;;;;;8.53;5.20;;;;;;;7.64;99.20;95278.25;5111756;28;20681;-62
2021/04/19 11:21:34;;;;;;;8.30;4.60;;;;;;;7.56;99.33;95271.13;5111436;28;20666;-63
2021/04/19 11:24:07;;;;;;;5.43;2.90;;;;;;;7.45;98.95;95280.06;5111467;28;20283;-62
2021/04/19 11:26:34;;;;;;;5.27;2.77;;;;;;;7.35;98.85;95275.81;5112124;28;20237;-64
2021/04/19 11:29:02;;;;;;;4.63;2.70;;;;;;;7.28;98.72;95274.59;5111731;28;20191;-63
2021/04/19 11:31:40;;;;;;;8.57;5.47;;;;;;;7.51;98.25;95266.03;5111744;28;20227;-63
2021/04/19 11:34:09;;;;;;;8.87;4.97;;;;;;;7.79;98.47;95272.09;5111660;28;20721;-63
2021/04/19 11:36:39;;;;;;;8.00;5.23;;;;;;;7.88;97.08;95277.41;5111274;28;20685;-63